Aviation Digital Data Service (ADDS)

Output produced by METARs form (1045 UTC 19 January 2019)
found at http://www.aviationweather.gov/metar/data/
 
LGPZ 191020Z 09009KT 9999 FEW012 FEW018TCU BKN020 OVC070 09/06 Q1019
TAF LGPZ 190500Z 1906/2006 09012KT 9999 FEW018 SCT025 BKN080 
     PROB40 
     TEMPO 1906/1924 5000 RA SCT018TCU BKN025 OVC070 
     PROB30 
     TEMPO 1906/1921 3000 TSRA SCT018CB BKN020 OVC070
       
LGAD 191020Z 17004KT 9999 FEW020 SCT025 BKN080 13/06 Q1018
TAF LGAD 190800Z 1909/1918 15015KT 9999 SCT025 BKN080 
     PROB40 
     TEMPO 1909/1918 7000 RA 
     PROB30 
     TEMPO 1910/1918 5000 TSRA FEW015CB BKN025 BKN080
       
LGRX 191020Z 00000KT 9999 FEW012 SCT025 OVC090 14/07 Q1018
TAF LGRX 190800Z 1909/1918 15015KT 9999 SCT025 BKN080 
     PROB40 
     TEMPO 1909/1918 7000 RA 
     PROB30 
     TEMPO 1910/1918 5000 TSRA FEW015CB BKN025 BKN080
       
LGHI 190950Z 18007KT 9999 FEW018TCU BKN025 13/10 Q1019
TAF LGHI 190800Z 1909/1918 19014KT 9999 FEW018 SCT025 
     PROB30 
     TEMPO 1909/1918 5000 RA SCT018 FEW018TCU BKN025 
     PROB30 
     TEMPO 1909/1918 5000 TSRA FEW016CB BKN025
       
LGRP 191020Z 22004KT 180V240 9999 FEW020 15/06 Q1020 NOSIG
TAF LGRP 190500Z 1906/2006 VRB05KT 9999 SCT020 
     BECMG 1907/1909 20010KT
       
LGAL 191020Z 08006KT 9999 FEW025 11/09 Q1019
TAF LGAL 190800Z 1909/1918 VRB05KT 9999 FEW018 
     PROB30 
     TEMPO 1912/1918 5000 RA SCT018 BKN025 
     PROB30 
     TEMPO 1914/1918 5000 TSRA FEW016CB BKN025 
     BECMG 1910/1912 17015KT
       
LGEL 191020Z VRB03KT 9999 FEW025 SCT070 14/09 Q1018
TAF LGEL 190500Z 1906/2006 18008KT 9999 FEW020 SCT070 
     BECMG 1909/1911 FEW020 BKN070
       
LGAV 191020Z 21008KT CAVOK 13/06 Q1019 NOSIG
TAF LGAV 190500Z 1906/2006 28008KT 9999 FEW025 SCT070 
     BECMG 1909/1911 22012KT FEW020 BKN070
       
LGKZ 190950Z 00000KT 9999 SCT020 SCT070 06/02 Q1018
LGIO 191020Z /////KT 9999 -RA FEW002 BKN030 OVC070 07/06 Q1018
TAF LGIO 190800Z 1909/1918 VRB03KT 6000 RA SCT005 BKN025 OVC070
       
LGKR 191020Z 11007KT 9999 SCT015 BKN030 OVC080 12/10 Q1017 TEMPO RA
TAF LGKR 190500Z 1906/2006 15012KT 7000 SCT014 BKN020 BKN070 
     PROB40 
     TEMPO 1906/1924 5000 RA 
     PROB30 
     TEMPO 1906/1924 3000 TSRA SCT016CB BKN020 OVC070 
     BECMG 1909/1911 15015G25KT 
     BECMG 2000/2002 15015KT
       
LGKL 191020Z 01005KT 2000 BR SCT025 BKN080 11/08 Q1019
TAF LGKL 190800Z 1909/1918 15015KT 9999 SCT025 BKN080 
     PROB40 
     TEMPO 1909/1918 7000 RA 
     PROB30 
     TEMPO 1909/1912 5000 TSRA FEW015CB BKN025 BKN080
       
LGKP 191020Z 19010KT 9999 SCT035 16/07 Q1021
TAF LGKP 190800Z 1909/1918 20015KT 9999 SCT025 BKN060
       
TAF LGTL 190800Z 1909/1918 16012KT 9999 SCT018 SCT080
       
LGKF 190950Z 12010KT 9999 -RA FEW015 SCT020 BKN070 13/11 Q1018
TAF LGKF 190800Z 1909/1918 15015KT 9999 SCT010 SCT020 BKN080 
     PROB40 
     TEMPO 1909/1918 5000 RA FEW016TCU BKN020 BKN070 
     PROB30 
     TEMPO 1909/1918 3000 TSRA SCT012 FEW016CB BKN020 BKN070 
     BECMG 1910/1912 15015G25KT
       
TAF LGKC 190800Z 1909/1918 19014KT 9999 SCT010 BKN020
       
LGKO 191020Z 19011KT 9999 SCT025 15/05 Q1020
TAF LGKO 190500Z 1906/2006 VRB05KT 9999 FEW020 BKN025 
     BECMG 1907/1909 17012KT 
     PROB30 
     TEMPO 2000/2006 5000 RA FEW010 BKN020
       
TAF LGLR 190800Z 1909/1918 VRB03KT 9999 SCT025 BKN080
       
LGLM 191020Z 18003KT 9999 FEW020 16/09 Q1018
TAF LGLM 190800Z 1909/1918 16012KT 9999 SCT020
       
LGTS 191020Z 30004KT 6000 3000S BR FEW008 SCT020 07/05 Q1019 NOSIG
TAF LGTS 190500Z 1906/2006 VRB03KT 6000 SCT010 
     PROB40 1906/1908 2000 BR BKN004 ??CMG 1909/1911 8000 FEW020 
     PROB30 
     TEMPO 1921/2006 6000 RA 
     TEMPO 2003/2006 0500 FG BKN001 OVC020
       
LGKV 191020Z 00000KT 9999 FEW025 BKN080 07/04 Q1019
TAF LGKV 190800Z 1909/1918 VRB05KT 9999 FEW020 SCT080 
     BECMG 1916/1918 07010KT
       
LGMK 191020Z 19007KT 9999 -RA FEW016 SCT030 13/10 Q1019
TAF LGMK 190800Z 1909/1918 22014KT 9999 FEW008 SCT018 
     PROB30 
     TEMPO 1909/1918 5000 RA FEW008 FEW018TCU BKN030 
     BECMG 1913/1915 16010KT
       
LGMT 191020Z 150120KT 120V220 9999 SCT020 13/08 Q1020
TAF LGMT 190800Z 1909/1918 16016KT 9999 FEW010 SCT025 
     PROB30 
     TEMPO 1909/1918 5000 RA SCT018 FEW018TCU BKN025 
     PROB30 
     TEMPO 1909/1918 5000 TSRA FEW016CB BKN025
       
LGBL 191020Z 00000KT 9999 FEW025 12/05 Q1018
TAF LGBL 190800Z 1909/1918 30006KT 9999 SCT025 BKN080
       
LGIR 191020Z 16015KT 9999 FEW025 BKN080 14/08 Q1019 NOSIG
TAF LGIR 190500Z 1906/2006 18015KT 9999 SCT025 BKN080
       
LGSM 191020Z 13012KT 9999 SCT018 15/11 Q1020
TAF LGSM 190800Z 1909/1918 17013KT 9999 SCT018 BKN025 
     PROB30 
     TEMPO 1909/1918 5000 RA SCT018 BKN020 
     PROB30 
     TEMPO 1909/1916 5000 TSRA FEW016CB BKN025
       
LGSR 191020Z 19006KT 9999 SCT025 15/07 Q1020
TAF LGSR 190500Z 1906/2006 20015KT 9999 SCT018 BKN025
       
LGSK 190950Z 00000KT 9999 FEW030 13/09 Q1018
TAF LGSK 190800Z 1909/1918 VRB05KT 9999 SCT018
       
TAF LGSY 190800Z 1909/1918 20012KT 9999 SCT020
       
LGSA 191020Z 00000KT 9999 FEW025 SCT080 14/08 Q1018
TAF LGSA 190500Z 1906/2006 VRB05KT 9999 SCT025 
     TEMPO 1906/1915 SCT020 BKN070
       
LGSO 191020Z AUTO 18011KT //// -RA ////// 12/10 Q1019 RE//
TAF LGTG 190800Z 1909/1918 21006KT 9999 FEW025 BKN070
       
LGZA 190950Z 12008KT 9999 FEW018TCU SCT020 BKN070 13/10 Q1018 RERA
TAF LGZA 190800Z 1909/1918 16013KT 9999 FEW010 SCT020 BKN070 
     PROB40 
     TEMPO 1909/1918 5000 RA FEW016TCU BKN020 BKN070 
     PROB30 
     TEMPO 1909/1918 3000 TSRA SCT012 FEW016CB BKN020 BKN070 
     BECMG 1910/1912 15015G25KT